sensor_id;sensor_type;location;lat;lon;timestamp;P1;durP1;ratioP1;P2;durP2;ratioP2
4311;SDS011;2169;49.086;9.284;2022-08-23T00:01:45;3.23;;;1.13;;
4311;SDS011;2169;49.086;9.284;2022-08-23T00:04:19;2.07;;;0.97;;
4311;SDS011;2169;49.086;9.284;2022-08-23T00:06:49;0.70;;;0.70;;
4311;SDS011;2169;49.086;9.284;2022-08-23T00:09:18;2.13;;;1.70;;
4311;SDS011;2169;49.086;9.284;2022-08-23T00:11:46;0.93;;;0.93;;
4311;SDS011;2169;49.086;9.284;2022-08-23T00:14:16;0.90;;;0.90;;
4311;SDS011;2169;49.086;9.284;2022-08-23T00:16:44;2.60;;;1.20;;
4311;SDS011;2169;49.086;9.284;2022-08-23T00:19:13;1.50;;;1.40;;
4311;SDS011;2169;49.086;9.284;2022-08-23T00:21:42;1.00;;;1.00;;
4311;SDS011;2169;49.086;9.284;2022-08-23T00:24:11;1.73;;;1.00;;
4311;SDS011;2169;49.086;9.284;2022-08-23T00:26:50;0.80;;;0.80;;
4311;SDS011;2169;49.086;9.284;2022-08-23T00:29:19;1.17;;;1.03;;
4311;SDS011;2169;49.086;9.284;2022-08-23T00:31:48;1.90;;;1.13;;
4311;SDS011;2169;49.086;9.284;2022-08-23T00:34:16;1.47;;;0.90;;
4311;SDS011;2169;49.086;9.284;2022-08-23T00:36:43;0.90;;;0.90;;
4311;SDS011;2169;49.086;9.284;2022-08-23T00:39:10;3.53;;;1.10;;
4311;SDS011;2169;49.086;9.284;2022-08-23T00:41:37;1.77;;;1.30;;
4311;SDS011;2169;49.086;9.284;2022-08-23T00:44:04;1.30;;;1.10;;
4311;SDS011;2169;49.086;9.284;2022-08-23T00:46:54;1.23;;;0.90;;
4311;SDS011;2169;49.086;9.284;2022-08-23T00:49:42;2.63;;;1.60;;
4311;SDS011;2169;49.086;9.284;2022-08-23T00:52:15;1.50;;;1.40;;
4311;SDS011;2169;49.086;9.284;2022-08-23T00:54:44;1.20;;;1.10;;
4311;SDS011;2169;49.086;9.284;2022-08-23T00:57:13;0.90;;;0.90;;
4311;SDS011;2169;49.086;9.284;2022-08-23T00:59:43;1.73;;;1.50;;
4311;SDS011;2169;49.086;9.284;2022-08-23T01:02:10;1.10;;;1.00;;
4311;SDS011;2169;49.086;9.284;2022-08-23T01:04:39;1.43;;;1.33;;
4311;SDS011;2169;49.086;9.284;2022-08-23T01:07:10;5.03;;;1.23;;
4311;SDS011;2169;49.086;9.284;2022-08-23T01:09:42;6.20;;;1.47;;
4311;SDS011;2169;49.086;9.284;2022-08-23T01:12:13;1.83;;;1.73;;
4311;SDS011;2169;49.086;9.284;2022-08-23T01:14:45;3.53;;;1.33;;
4311;SDS011;2169;49.086;9.284;2022-08-23T01:17:17;1.50;;;1.40;;
4311;SDS011;2169;49.086;9.284;2022-08-23T01:19:49;1.27;;;1.27;;
4311;SDS011;2169;49.086;9.284;2022-08-23T01:22:23;1.00;;;1.00;;
4311;SDS011;2169;49.086;9.284;2022-08-23T01:24:55;1.73;;;1.40;;
4311;SDS011;2169;49.086;9.284;2022-08-23T01:27:22;3.80;;;1.23;;
4311;SDS011;2169;49.086;9.284;2022-08-23T01:29:49;2.50;;;1.30;;
4311;SDS011;2169;49.086;9.284;2022-08-23T01:32:16;1.20;;;1.10;;
4311;SDS011;2169;49.086;9.284;2022-08-23T01:34:44;4.90;;;1.70;;
4311;SDS011;2169;49.086;9.284;2022-08-23T01:37:11;1.70;;;1.60;;
4311;SDS011;2169;49.086;9.284;2022-08-23T01:39:38;1.10;;;1.00;;
4311;SDS011;2169;49.086;9.284;2022-08-23T01:42:06;1.27;;;1.17;;
4311;SDS011;2169;49.086;9.284;2022-08-23T01:44:34;2.70;;;1.13;;
4311;SDS011;2169;49.086;9.284;2022-08-23T01:47:01;1.43;;;1.33;;
4311;SDS011;2169;49.086;9.284;2022-08-23T01:49:28;1.43;;;1.40;;
4311;SDS011;2169;49.086;9.284;2022-08-23T01:51:55;1.33;;;1.13;;
4311;SDS011;2169;49.086;9.284;2022-08-23T01:54:22;1.60;;;1.50;;
4311;SDS011;2169;49.086;9.284;2022-08-23T01:56:48;5.40;;;1.20;;
4311;SDS011;2169;49.086;9.284;2022-08-23T01:59:17;1.47;;;1.20;;
4311;SDS011;2169;49.086;9.284;2022-08-23T02:01:44;3.00;;;2.40;;
4311;SDS011;2169;49.086;9.284;2022-08-23T02:04:11;1.70;;;1.60;;
4311;SDS011;2169;49.086;9.284;2022-08-23T02:06:38;2.00;;;1.57;;
4311;SDS011;2169;49.086;9.284;2022-08-23T02:09:05;1.90;;;1.57;;
4311;SDS011;2169;49.086;9.284;2022-08-23T02:11:34;1.20;;;1.10;;
4311;SDS011;2169;49.086;9.284;2022-08-23T02:14:04;3.47;;;1.20;;
4311;SDS011;2169;49.086;9.284;2022-08-23T02:16:35;1.50;;;1.30;;
4311;SDS011;2169;49.086;9.284;2022-08-23T02:19:05;1.63;;;1.10;;
4311;SDS011;2169;49.086;9.284;2022-08-23T02:21:34;1.50;;;1.40;;
4311;SDS011;2169;49.086;9.284;2022-08-23T02:24:03;1.27;;;1.10;;
4311;SDS011;2169;49.086;9.284;2022-08-23T02:26:31;1.47;;;1.37;;
4311;SDS011;2169;49.086;9.284;2022-08-23T02:29:00;2.60;;;1.30;;
4311;SDS011;2169;49.086;9.284;2022-08-23T02:31:27;1.00;;;1.00;;
4311;SDS011;2169;49.086;9.284;2022-08-23T02:33:55;4.90;;;1.23;;
4311;SDS011;2169;49.086;9.284;2022-08-23T02:36:22;5.70;;;1.10;;
4311;SDS011;2169;49.086;9.284;2022-08-23T02:38:49;5.20;;;1.50;;
4311;SDS011;2169;49.086;9.284;2022-08-23T02:41:16;1.70;;;1.53;;
4311;SDS011;2169;49.086;9.284;2022-08-23T02:43:43;2.63;;;1.47;;
4311;SDS011;2169;49.086;9.284;2022-08-23T02:46:10;1.50;;;1.40;;
4311;SDS011;2169;49.086;9.284;2022-08-23T02:48:37;2.60;;;2.20;;
4311;SDS011;2169;49.086;9.284;2022-08-23T02:51:06;1.60;;;1.50;;
4311;SDS011;2169;49.086;9.284;2022-08-23T02:53:34;2.00;;;1.20;;
4311;SDS011;2169;49.086;9.284;2022-08-23T02:56:01;1.53;;;1.20;;
4311;SDS011;2169;49.086;9.284;2022-08-23T02:58:29;2.00;;;0.90;;
4311;SDS011;2169;49.086;9.284;2022-08-23T03:00:56;1.60;;;1.47;;
4311;SDS011;2169;49.086;9.284;2022-08-23T03:03:23;1.00;;;1.00;;
4311;SDS011;2169;49.086;9.284;2022-08-23T03:05:50;1.30;;;1.20;;
4311;SDS011;2169;49.086;9.284;2022-08-23T03:08:19;1.83;;;1.20;;
4311;SDS011;2169;49.086;9.284;2022-08-23T03:10:47;1.20;;;1.10;;
4311;SDS011;2169;49.086;9.284;2022-08-23T03:13:16;4.60;;;1.47;;
4311;SDS011;2169;49.086;9.284;2022-08-23T03:15:44;1.23;;;1.23;;
4311;SDS011;2169;49.086;9.284;2022-08-23T03:18:11;2.30;;;1.27;;
4311;SDS011;2169;49.086;9.284;2022-08-23T03:20:39;5.13;;;1.87;;
4311;SDS011;2169;49.086;9.284;2022-08-23T03:23:06;1.30;;;1.30;;
4311;SDS011;2169;49.086;9.284;2022-08-23T03:25:35;2.87;;;1.00;;
4311;SDS011;2169;49.086;9.284;2022-08-23T03:28:03;1.97;;;1.67;;
4311;SDS011;2169;49.086;9.284;2022-08-23T03:30:30;1.63;;;1.57;;
4311;SDS011;2169;49.086;9.284;2022-08-23T03:32:58;1.30;;;1.30;;
4311;SDS011;2169;49.086;9.284;2022-08-23T03:35:25;4.00;;;1.30;;
4311;SDS011;2169;49.086;9.284;2022-08-23T03:37:52;4.93;;;1.87;;
4311;SDS011;2169;49.086;9.284;2022-08-23T03:40:19;3.23;;;1.60;;
4311;SDS011;2169;49.086;9.284;2022-08-23T03:42:49;2.40;;;2.20;;
4311;SDS011;2169;49.086;9.284;2022-08-23T03:45:16;1.70;;;1.33;;
4311;SDS011;2169;49.086;9.284;2022-08-23T03:47:44;3.97;;;1.83;;
4311;SDS011;2169;49.086;9.284;2022-08-23T03:50:11;3.27;;;1.57;;
4311;SDS011;2169;49.086;9.284;2022-08-23T03:52:37;1.37;;;1.37;;
4311;SDS011;2169;49.086;9.284;2022-08-23T03:55:05;1.70;;;1.60;;
4311;SDS011;2169;49.086;9.284;2022-08-23T03:57:32;7.30;;;1.97;;
4311;SDS011;2169;49.086;9.284;2022-08-23T04:00:00;1.80;;;1.10;;
4311;SDS011;2169;49.086;9.284;2022-08-23T04:02:27;2.13;;;1.93;;
4311;SDS011;2169;49.086;9.284;2022-08-23T04:04:54;1.27;;;1.17;;
4311;SDS011;2169;49.086;9.284;2022-08-23T04:07:22;1.40;;;1.30;;
4311;SDS011;2169;49.086;9.284;2022-08-23T04:09:49;5.40;;;1.70;;
4311;SDS011;2169;49.086;9.284;2022-08-23T04:12:16;3.17;;;1.57;;
4311;SDS011;2169;49.086;9.284;2022-08-23T04:14:43;2.30;;;1.47;;
4311;SDS011;2169;49.086;9.284;2022-08-23T04:17:12;9.53;;;1.63;;
4311;SDS011;2169;49.086;9.284;2022-08-23T04:19:40;3.67;;;1.53;;
4311;SDS011;2169;49.086;9.284;2022-08-23T04:22:10;3.13;;;2.00;;
4311;SDS011;2169;49.086;9.284;2022-08-23T04:24:39;3.63;;;1.30;;
4311;SDS011;2169;49.086;9.284;2022-08-23T04:27:07;3.90;;;1.57;;
4311;SDS011;2169;49.086;9.284;2022-08-23T04:29:34;1.93;;;1.83;;
4311;SDS011;2169;49.086;9.284;2022-08-23T04:32:03;1.13;;;1.00;;
4311;SDS011;2169;49.086;9.284;2022-08-23T04:34:32;1.83;;;1.73;;
4311;SDS011;2169;49.086;9.284;2022-08-23T04:37:00;3.27;;;2.40;;
4311;SDS011;2169;49.086;9.284;2022-08-23T04:39:27;2.10;;;1.63;;
4311;SDS011;2169;49.086;9.284;2022-08-23T04:41:54;1.50;;;1.40;;
4311;SDS011;2169;49.086;9.284;2022-08-23T04:44:40;2.30;;;1.77;;
4311;SDS011;2169;49.086;9.284;2022-08-23T04:47:07;2.00;;;1.67;;
4311;SDS011;2169;49.086;9.284;2022-08-23T04:49:35;3.33;;;1.73;;
4311;SDS011;2169;49.086;9.284;2022-08-23T04:52:02;2.60;;;1.27;;
4311;SDS011;2169;49.086;9.284;2022-08-23T04:54:29;2.83;;;2.23;;
4311;SDS011;2169;49.086;9.284;2022-08-23T04:56:56;2.20;;;1.97;;
4311;SDS011;2169;49.086;9.284;2022-08-23T04:59:22;2.33;;;2.13;;
4311;SDS011;2169;49.086;9.284;2022-08-23T05:01:49;9.03;;;2.93;;
4311;SDS011;2169;49.086;9.284;2022-08-23T05:04:17;7.70;;;3.40;;
4311;SDS011;2169;49.086;9.284;2022-08-23T05:06:45;2.53;;;2.43;;
4311;SDS011;2169;49.086;9.284;2022-08-23T05:09:12;3.63;;;1.90;;
4311;SDS011;2169;49.086;9.284;2022-08-23T05:11:39;3.27;;;2.77;;
4311;SDS011;2169;49.086;9.284;2022-08-23T05:14:06;1.53;;;1.43;;
4311;SDS011;2169;49.086;9.284;2022-08-23T05:16:33;2.73;;;1.57;;
4311;SDS011;2169;49.086;9.284;2022-08-23T05:19:00;7.43;;;2.87;;
4311;SDS011;2169;49.086;9.284;2022-08-23T05:21:27;2.13;;;2.03;;
4311;SDS011;2169;49.086;9.284;2022-08-23T05:23:55;2.67;;;2.47;;
4311;SDS011;2169;49.086;9.284;2022-08-23T05:26:22;2.97;;;1.90;;
4311;SDS011;2169;49.086;9.284;2022-08-23T05:28:48;2.00;;;1.90;;
4311;SDS011;2169;49.086;9.284;2022-08-23T05:31:16;1.90;;;1.80;;
4311;SDS011;2169;49.086;9.284;2022-08-23T05:33:45;2.80;;;1.87;;
4311;SDS011;2169;49.086;9.284;2022-08-23T05:36:13;3.07;;;1.70;;
4311;SDS011;2169;49.086;9.284;2022-08-23T05:38:41;2.87;;;2.50;;
4311;SDS011;2169;49.086;9.284;2022-08-23T05:41:11;2.50;;;2.30;;
4311;SDS011;2169;49.086;9.284;2022-08-23T05:43:39;8.20;;;2.33;;
4311;SDS011;2169;49.086;9.284;2022-08-23T05:46:07;7.97;;;2.80;;
4311;SDS011;2169;49.086;9.284;2022-08-23T05:48:36;2.07;;;1.73;;
4311;SDS011;2169;49.086;9.284;2022-08-23T05:51:09;2.83;;;2.63;;
4311;SDS011;2169;49.086;9.284;2022-08-23T05:53:37;2.90;;;1.90;;
4311;SDS011;2169;49.086;9.284;2022-08-23T05:56:08;2.53;;;2.43;;
4311;SDS011;2169;49.086;9.284;2022-08-23T05:58:37;2.77;;;2.27;;
4311;SDS011;2169;49.086;9.284;2022-08-23T06:01:04;1.77;;;1.67;;
4311;SDS011;2169;49.086;9.284;2022-08-23T06:03:31;7.10;;;2.63;;
4311;SDS011;2169;49.086;9.284;2022-08-23T06:05:59;2.53;;;2.33;;
4311;SDS011;2169;49.086;9.284;2022-08-23T06:08:26;2.70;;;2.50;;
4311;SDS011;2169;49.086;9.284;2022-08-23T06:10:58;4.50;;;1.50;;
4311;SDS011;2169;49.086;9.284;2022-08-23T06:13:27;6.93;;;2.80;;
4311;SDS011;2169;49.086;9.284;2022-08-23T06:15:55;3.57;;;1.93;;
4311;SDS011;2169;49.086;9.284;2022-08-23T06:18:22;5.30;;;2.10;;
4311;SDS011;2169;49.086;9.284;2022-08-23T06:20:57;2.83;;;1.57;;
4311;SDS011;2169;49.086;9.284;2022-08-23T06:23:26;8.20;;;2.60;;
4311;SDS011;2169;49.086;9.284;2022-08-23T06:25:53;2.57;;;2.37;;
4311;SDS011;2169;49.086;9.284;2022-08-23T06:28:20;4.30;;;3.50;;
4311;SDS011;2169;49.086;9.284;2022-08-23T06:30:48;4.03;;;2.97;;
4311;SDS011;2169;49.086;9.284;2022-08-23T06:33:18;4.00;;;1.40;;
4311;SDS011;2169;49.086;9.284;2022-08-23T06:35:45;1.37;;;1.30;;
4311;SDS011;2169;49.086;9.284;2022-08-23T06:38:12;1.70;;;1.60;;
4311;SDS011;2169;49.086;9.284;2022-08-23T06:40:38;1.23;;;1.23;;
4311;SDS011;2169;49.086;9.284;2022-08-23T06:43:05;2.77;;;2.57;;
4311;SDS011;2169;49.086;9.284;2022-08-23T06:45:32;2.43;;;1.40;;
4311;SDS011;2169;49.086;9.284;2022-08-23T06:48:00;2.23;;;2.13;;
4311;SDS011;2169;49.086;9.284;2022-08-23T06:50:27;1.93;;;1.80;;
4311;SDS011;2169;49.086;9.284;2022-08-23T06:52:54;1.47;;;1.20;;
4311;SDS011;2169;49.086;9.284;2022-08-23T06:55:21;2.03;;;1.90;;
4311;SDS011;2169;49.086;9.284;2022-08-23T06:57:48;1.33;;;1.23;;
4311;SDS011;2169;49.086;9.284;2022-08-23T07:00:14;1.70;;;1.60;;
4311;SDS011;2169;49.086;9.284;2022-08-23T07:02:41;3.80;;;1.37;;
4311;SDS011;2169;49.086;9.284;2022-08-23T07:05:09;2.40;;;1.60;;
4311;SDS011;2169;49.086;9.284;2022-08-23T07:07:36;1.93;;;1.80;;
4311;SDS011;2169;49.086;9.284;2022-08-23T07:10:04;1.10;;;1.10;;
4311;SDS011;2169;49.086;9.284;2022-08-23T07:12:32;3.17;;;2.60;;
4311;SDS011;2169;49.086;9.284;2022-08-23T07:15:02;1.97;;;1.37;;
4311;SDS011;2169;49.086;9.284;2022-08-23T07:17:30;3.37;;;1.67;;
4311;SDS011;2169;49.086;9.284;2022-08-23T07:19:56;9.03;;;1.83;;
4311;SDS011;2169;49.086;9.284;2022-08-23T07:22:25;4.70;;;1.40;;
4311;SDS011;2169;49.086;9.284;2022-08-23T07:24:51;2.47;;;2.03;;
4311;SDS011;2169;49.086;9.284;2022-08-23T07:27:18;1.63;;;1.30;;
4311;SDS011;2169;49.086;9.284;2022-08-23T07:29:45;2.30;;;1.20;;
4311;SDS011;2169;49.086;9.284;2022-08-23T07:32:12;14.40;;;1.60;;
4311;SDS011;2169;49.086;9.284;2022-08-23T07:34:39;1.43;;;0.80;;
4311;SDS011;2169;49.086;9.284;2022-08-23T07:37:06;2.30;;;1.23;;
4311;SDS011;2169;49.086;9.284;2022-08-23T07:39:34;8.50;;;2.33;;
4311;SDS011;2169;49.086;9.284;2022-08-23T07:42:01;12.30;;;2.43;;
4311;SDS011;2169;49.086;9.284;2022-08-23T07:44:29;7.60;;;2.50;;
4311;SDS011;2169;49.086;9.284;2022-08-23T07:46:58;3.90;;;1.53;;
4311;SDS011;2169;49.086;9.284;2022-08-23T07:49:25;5.10;;;1.40;;
4311;SDS011;2169;49.086;9.284;2022-08-23T07:51:51;2.00;;;1.47;;
4311;SDS011;2169;49.086;9.284;2022-08-23T07:54:20;1.27;;;1.27;;
4311;SDS011;2169;49.086;9.284;2022-08-23T07:56:50;10.10;;;2.47;;
4311;SDS011;2169;49.086;9.284;2022-08-23T07:59:17;3.03;;;1.30;;
4311;SDS011;2169;49.086;9.284;2022-08-23T08:01:44;0.80;;;0.80;;
4311;SDS011;2169;49.086;9.284;2022-08-23T08:04:11;7.20;;;1.23;;
4311;SDS011;2169;49.086;9.284;2022-08-23T08:06:39;1.30;;;1.20;;
4311;SDS011;2169;49.086;9.284;2022-08-23T08:09:10;1.57;;;1.00;;
4311;SDS011;2169;49.086;9.284;2022-08-23T08:11:39;6.77;;;2.60;;
4311;SDS011;2169;49.086;9.284;2022-08-23T08:14:09;1.83;;;1.73;;
4311;SDS011;2169;49.086;9.284;2022-08-23T08:16:37;1.30;;;1.20;;
4311;SDS011;2169;49.086;9.284;2022-08-23T08:19:07;1.50;;;1.40;;
4311;SDS011;2169;49.086;9.284;2022-08-23T08:21:35;1.60;;;1.60;;
4311;SDS011;2169;49.086;9.284;2022-08-23T08:24:04;1.43;;;1.30;;
4311;SDS011;2169;49.086;9.284;2022-08-23T08:26:32;1.67;;;1.40;;
4311;SDS011;2169;49.086;9.284;2022-08-23T08:28:59;1.07;;;1.00;;
4311;SDS011;2169;49.086;9.284;2022-08-23T08:31:27;1.90;;;1.37;;
4311;SDS011;2169;49.086;9.284;2022-08-23T08:33:54;2.93;;;1.30;;
4311;SDS011;2169;49.086;9.284;2022-08-23T08:36:29;4.67;;;1.97;;
4311;SDS011;2169;49.086;9.284;2022-08-23T08:38:59;1.40;;;0.80;;
4311;SDS011;2169;49.086;9.284;2022-08-23T08:41:31;1.37;;;0.80;;
4311;SDS011;2169;49.086;9.284;2022-08-23T08:44:09;1.20;;;1.10;;
4311;SDS011;2169;49.086;9.284;2022-08-23T08:46:46;1.13;;;0.73;;
4311;SDS011;2169;49.086;9.284;2022-08-23T08:49:17;4.13;;;1.13;;
4311;SDS011;2169;49.086;9.284;2022-08-23T08:51:58;1.67;;;1.10;;
4311;SDS011;2169;49.086;9.284;2022-08-23T08:54:28;1.60;;;1.27;;
4311;SDS011;2169;49.086;9.284;2022-08-23T08:56:57;0.87;;;0.80;;
4311;SDS011;2169;49.086;9.284;2022-08-23T08:59:28;2.10;;;1.13;;
4311;SDS011;2169;49.086;9.284;2022-08-23T09:02:12;1.10;;;1.10;;
4311;SDS011;2169;49.086;9.284;2022-08-23T09:04:42;1.13;;;1.13;;
4311;SDS011;2169;49.086;9.284;2022-08-23T09:07:09;6.40;;;1.93;;
4311;SDS011;2169;49.086;9.284;2022-08-23T09:09:58;1.83;;;0.80;;
4311;SDS011;2169;49.086;9.284;2022-08-23T09:12:50;1.23;;;1.10;;
4311;SDS011;2169;49.086;9.284;2022-08-23T09:15:25;1.00;;;1.00;;
4311;SDS011;2169;49.086;9.284;2022-08-23T09:18:00;1.03;;;0.60;;
4311;SDS011;2169;49.086;9.284;2022-08-23T09:20:30;3.00;;;1.30;;
4311;SDS011;2169;49.086;9.284;2022-08-23T09:23:02;1.60;;;1.17;;
4311;SDS011;2169;49.086;9.284;2022-08-23T09:25:32;1.37;;;1.27;;
4311;SDS011;2169;49.086;9.284;2022-08-23T09:27:59;5.20;;;1.17;;
4311;SDS011;2169;49.086;9.284;2022-08-23T09:33:14;5.43;;;0.70;;
4311;SDS011;2169;49.086;9.284;2022-08-23T09:35:43;0.80;;;0.80;;
4311;SDS011;2169;49.086;9.284;2022-08-23T09:38:27;1.53;;;1.10;;
4311;SDS011;2169;49.086;9.284;2022-08-23T09:40:54;1.83;;;0.60;;
4311;SDS011;2169;49.086;9.284;2022-08-23T09:43:28;0.60;;;0.60;;
4311;SDS011;2169;49.086;9.284;2022-08-23T09:46:09;6.83;;;1.27;;
4311;SDS011;2169;49.086;9.284;2022-08-23T09:48:38;2.70;;;1.00;;
4311;SDS011;2169;49.086;9.284;2022-08-23T09:51:11;1.43;;;1.00;;
4311;SDS011;2169;49.086;9.284;2022-08-23T09:53:44;3.60;;;1.50;;
4311;SDS011;2169;49.086;9.284;2022-08-23T09:56:16;1.00;;;0.90;;
4311;SDS011;2169;49.086;9.284;2022-08-23T09:58:48;2.50;;;0.90;;
4311;SDS011;2169;49.086;9.284;2022-08-23T10:01:19;2.27;;;0.70;;
4311;SDS011;2169;49.086;9.284;2022-08-23T10:04:05;2.03;;;0.80;;
4311;SDS011;2169;49.086;9.284;2022-08-23T10:06:35;4.13;;;1.10;;
4311;SDS011;2169;49.086;9.284;2022-08-23T10:09:03;1.13;;;0.80;;
4311;SDS011;2169;49.086;9.284;2022-08-23T10:11:33;1.47;;;0.90;;
4311;SDS011;2169;49.086;9.284;2022-08-23T10:14:03;1.57;;;0.80;;
4311;SDS011;2169;49.086;9.284;2022-08-23T10:16:33;1.20;;;0.80;;
4311;SDS011;2169;49.086;9.284;2022-08-23T10:19:09;1.03;;;0.93;;
4311;SDS011;2169;49.086;9.284;2022-08-23T10:21:45;1.63;;;0.60;;
4311;SDS011;2169;49.086;9.284;2022-08-23T10:24:22;2.10;;;0.70;;
4311;SDS011;2169;49.086;9.284;2022-08-23T10:27:02;1.17;;;0.80;;
4311;SDS011;2169;49.086;9.284;2022-08-23T10:29:49;2.03;;;1.10;;
4311;SDS011;2169;49.086;9.284;2022-08-23T10:32:25;2.40;;;1.00;;
4311;SDS011;2169;49.086;9.284;2022-08-23T10:35:05;4.00;;;0.73;;
4311;SDS011;2169;49.086;9.284;2022-08-23T10:38:03;0.67;;;0.67;;
4311;SDS011;2169;49.086;9.284;2022-08-23T10:40:39;2.90;;;1.00;;
4311;SDS011;2169;49.086;9.284;2022-08-23T10:43:12;2.00;;;1.00;;
4311;SDS011;2169;49.086;9.284;2022-08-23T10:45:50;1.00;;;0.90;;
4311;SDS011;2169;49.086;9.284;2022-08-23T10:48:22;0.67;;;0.67;;
4311;SDS011;2169;49.086;9.284;2022-08-23T10:50:55;1.47;;;0.80;;
4311;SDS011;2169;49.086;9.284;2022-08-23T10:53:27;1.13;;;1.03;;
4311;SDS011;2169;49.086;9.284;2022-08-23T10:56:01;1.20;;;0.67;;
4311;SDS011;2169;49.086;9.284;2022-08-23T10:58:31;2.30;;;0.70;;
4311;SDS011;2169;49.086;9.284;2022-08-23T11:01:03;0.93;;;0.60;;
4311;SDS011;2169;49.086;9.284;2022-08-23T11:03:32;3.53;;;1.10;;
4311;SDS011;2169;49.086;9.284;2022-08-23T11:08:56;0.80;;;0.80;;
4311;SDS011;2169;49.086;9.284;2022-08-23T11:11:32;1.80;;;0.90;;
4311;SDS011;2169;49.086;9.284;2022-08-23T11:14:06;1.10;;;0.87;;
4311;SDS011;2169;49.086;9.284;2022-08-23T11:16:34;2.80;;;0.87;;
4311;SDS011;2169;49.086;9.284;2022-08-23T11:19:08;2.17;;;0.87;;
4311;SDS011;2169;49.086;9.284;2022-08-23T11:21:48;1.60;;;0.80;;
4311;SDS011;2169;49.086;9.284;2022-08-23T11:24:28;1.00;;;0.80;;
4311;SDS011;2169;49.086;9.284;2022-08-23T11:27:02;1.33;;;0.97;;
4311;SDS011;2169;49.086;9.284;2022-08-23T11:29:32;2.70;;;0.70;;
4311;SDS011;2169;49.086;9.284;2022-08-23T11:32:03;1.63;;;1.53;;
4311;SDS011;2169;49.086;9.284;2022-08-23T11:34:41;8.67;;;1.07;;
4311;SDS011;2169;49.086;9.284;2022-08-23T11:37:25;2.50;;;0.93;;
4311;SDS011;2169;49.086;9.284;2022-08-23T11:40:01;0.83;;;0.77;;
4311;SDS011;2169;49.086;9.284;2022-08-23T11:42:46;1.60;;;1.10;;
4311;SDS011;2169;49.086;9.284;2022-08-23T11:45:27;1.30;;;0.90;;
4311;SDS011;2169;49.086;9.284;2022-08-23T11:48:05;1.03;;;0.93;;
4311;SDS011;2169;49.086;9.284;2022-08-23T11:53:38;2.93;;;0.90;;
4311;SDS011;2169;49.086;9.284;2022-08-23T11:59:25;4.60;;;1.10;;
4311;SDS011;2169;49.086;9.284;2022-08-23T12:04:57;0.80;;;0.70;;
4311;SDS011;2169;49.086;9.284;2022-08-23T12:07:42;0.90;;;0.90;;
4311;SDS011;2169;49.086;9.284;2022-08-23T12:10:15;1.17;;;0.70;;
4311;SDS011;2169;49.086;9.284;2022-08-23T12:13:03;6.10;;;1.20;;
4311;SDS011;2169;49.086;9.284;2022-08-23T12:16:08;0.70;;;0.70;;
4311;SDS011;2169;49.086;9.284;2022-08-23T12:18:53;2.67;;;1.07;;
4311;SDS011;2169;49.086;9.284;2022-08-23T12:21:22;2.23;;;1.07;;
4311;SDS011;2169;49.086;9.284;2022-08-23T12:23:54;1.13;;;0.80;;
4311;SDS011;2169;49.086;9.284;2022-08-23T12:26:25;0.77;;;0.77;;
4311;SDS011;2169;49.086;9.284;2022-08-23T12:28:56;1.20;;;0.70;;
4311;SDS011;2169;49.086;9.284;2022-08-23T12:31:31;1.77;;;0.77;;
4311;SDS011;2169;49.086;9.284;2022-08-23T12:34:05;1.10;;;1.00;;
4311;SDS011;2169;49.086;9.284;2022-08-23T12:36:44;0.70;;;0.67;;
4311;SDS011;2169;49.086;9.284;2022-08-23T12:39:23;2.57;;;0.90;;
4311;SDS011;2169;49.086;9.284;2022-08-23T12:41:55;2.10;;;1.60;;
4311;SDS011;2169;49.086;9.284;2022-08-23T12:44:28;3.20;;;0.87;;
4311;SDS011;2169;49.086;9.284;2022-08-23T12:46:55;1.27;;;1.27;;
4311;SDS011;2169;49.086;9.284;2022-08-23T12:49:34;2.23;;;0.73;;
4311;SDS011;2169;49.086;9.284;2022-08-23T12:52:04;1.27;;;0.70;;
4311;SDS011;2169;49.086;9.284;2022-08-23T12:54:37;3.43;;;1.43;;
4311;SDS011;2169;49.086;9.284;2022-08-23T12:57:07;3.87;;;1.50;;
4311;SDS011;2169;49.086;9.284;2022-08-23T12:59:40;1.00;;;0.90;;
4311;SDS011;2169;49.086;9.284;2022-08-23T13:02:14;1.23;;;0.70;;
4311;SDS011;2169;49.086;9.284;2022-08-23T13:04:45;3.07;;;0.80;;
4311;SDS011;2169;49.086;9.284;2022-08-23T13:07:14;2.20;;;0.63;;
4311;SDS011;2169;49.086;9.284;2022-08-23T13:09:44;0.70;;;0.70;;
4311;SDS011;2169;49.086;9.284;2022-08-23T13:12:13;2.10;;;0.60;;
4311;SDS011;2169;49.086;9.284;2022-08-23T13:14:45;0.83;;;0.83;;
4311;SDS011;2169;49.086;9.284;2022-08-23T13:17:16;0.97;;;0.80;;
4311;SDS011;2169;49.086;9.284;2022-08-23T13:19:45;0.70;;;0.70;;
4311;SDS011;2169;49.086;9.284;2022-08-23T13:22:18;3.00;;;0.67;;
4311;SDS011;2169;49.086;9.284;2022-08-23T13:24:58;3.33;;;1.20;;
4311;SDS011;2169;49.086;9.284;2022-08-23T13:27:30;1.40;;;0.80;;
4311;SDS011;2169;49.086;9.284;2022-08-23T13:29:59;3.70;;;1.10;;
4311;SDS011;2169;49.086;9.284;2022-08-23T13:32:31;0.80;;;0.80;;
4311;SDS011;2169;49.086;9.284;2022-08-23T13:38:08;3.90;;;1.20;;
4311;SDS011;2169;49.086;9.284;2022-08-23T13:40:42;1.40;;;1.30;;
4311;SDS011;2169;49.086;9.284;2022-08-23T13:43:18;2.10;;;1.03;;
4311;SDS011;2169;49.086;9.284;2022-08-23T13:45:47;2.30;;;1.07;;
4311;SDS011;2169;49.086;9.284;2022-08-23T13:48:17;1.23;;;0.87;;
4311;SDS011;2169;49.086;9.284;2022-08-23T13:50:46;2.50;;;0.60;;
4311;SDS011;2169;49.086;9.284;2022-08-23T13:53:14;4.83;;;1.90;;
4311;SDS011;2169;49.086;9.284;2022-08-23T13:55:42;0.83;;;0.80;;
4311;SDS011;2169;49.086;9.284;2022-08-23T13:58:12;0.90;;;0.70;;
4311;SDS011;2169;49.086;9.284;2022-08-23T14:00:43;0.63;;;0.63;;
4311;SDS011;2169;49.086;9.284;2022-08-23T14:03:12;1.13;;;1.03;;
4311;SDS011;2169;49.086;9.284;2022-08-23T14:05:39;7.20;;;0.80;;
4311;SDS011;2169;49.086;9.284;2022-08-23T14:08:06;3.90;;;1.07;;
4311;SDS011;2169;49.086;9.284;2022-08-23T14:10:33;3.70;;;0.70;;
4311;SDS011;2169;49.086;9.284;2022-08-23T14:13:00;1.80;;;0.90;;
4311;SDS011;2169;49.086;9.284;2022-08-23T14:15:35;4.60;;;1.00;;
4311;SDS011;2169;49.086;9.284;2022-08-23T14:18:03;1.07;;;0.70;;
4311;SDS011;2169;49.086;9.284;2022-08-23T14:20:30;1.53;;;0.80;;
4311;SDS011;2169;49.086;9.284;2022-08-23T14:22:57;1.47;;;0.93;;
4311;SDS011;2169;49.086;9.284;2022-08-23T14:25:24;1.03;;;0.93;;
4311;SDS011;2169;49.086;9.284;2022-08-23T14:27:53;1.57;;;0.73;;
4311;SDS011;2169;49.086;9.284;2022-08-23T14:30:24;1.00;;;0.80;;
4311;SDS011;2169;49.086;9.284;2022-08-23T14:32:53;3.70;;;1.60;;
4311;SDS011;2169;49.086;9.284;2022-08-23T14:35:21;0.67;;;0.67;;
4311;SDS011;2169;49.086;9.284;2022-08-23T14:37:48;2.87;;;0.67;;
4311;SDS011;2169;49.086;9.284;2022-08-23T14:40:19;0.60;;;0.60;;
4311;SDS011;2169;49.086;9.284;2022-08-23T14:42:46;0.97;;;0.70;;
4311;SDS011;2169;49.086;9.284;2022-08-23T14:45:13;1.90;;;0.80;;
4311;SDS011;2169;49.086;9.284;2022-08-23T14:47:41;0.80;;;0.80;;
4311;SDS011;2169;49.086;9.284;2022-08-23T14:50:10;2.47;;;0.63;;
4311;SDS011;2169;49.086;9.284;2022-08-23T14:52:44;1.80;;;1.07;;
4311;SDS011;2169;49.086;9.284;2022-08-23T14:55:12;2.33;;;0.70;;
4311;SDS011;2169;49.086;9.284;2022-08-23T14:57:40;6.80;;;0.70;;
4311;SDS011;2169;49.086;9.284;2022-08-23T15:00:07;0.97;;;0.90;;
4311;SDS011;2169;49.086;9.284;2022-08-23T15:02:40;3.40;;;0.60;;
4311;SDS011;2169;49.086;9.284;2022-08-23T15:05:08;1.57;;;0.60;;
4311;SDS011;2169;49.086;9.284;2022-08-23T15:07:35;0.70;;;0.70;;
4311;SDS011;2169;49.086;9.284;2022-08-23T15:10:04;1.93;;;0.70;;
4311;SDS011;2169;49.086;9.284;2022-08-23T15:12:33;1.27;;;0.80;;
4311;SDS011;2169;49.086;9.284;2022-08-23T15:15:01;0.67;;;0.67;;
4311;SDS011;2169;49.086;9.284;2022-08-23T15:17:29;1.60;;;0.83;;
4311;SDS011;2169;49.086;9.284;2022-08-23T15:19:55;0.93;;;0.70;;
4311;SDS011;2169;49.086;9.284;2022-08-23T15:22:22;1.23;;;1.00;;
4311;SDS011;2169;49.086;9.284;2022-08-23T15:24:49;1.40;;;0.60;;
4311;SDS011;2169;49.086;9.284;2022-08-23T15:27:17;0.90;;;0.80;;
4311;SDS011;2169;49.086;9.284;2022-08-23T15:29:52;3.73;;;0.87;;
4311;SDS011;2169;49.086;9.284;2022-08-23T15:32:19;2.50;;;0.70;;
4311;SDS011;2169;49.086;9.284;2022-08-23T15:34:46;2.67;;;0.70;;
4311;SDS011;2169;49.086;9.284;2022-08-23T15:37:13;1.57;;;1.47;;
4311;SDS011;2169;49.086;9.284;2022-08-23T15:39:40;2.80;;;1.23;;
4311;SDS011;2169;49.086;9.284;2022-08-23T15:42:07;1.60;;;0.70;;
4311;SDS011;2169;49.086;9.284;2022-08-23T15:44:35;1.70;;;0.50;;
4311;SDS011;2169;49.086;9.284;2022-08-23T15:47:02;1.53;;;0.70;;
4311;SDS011;2169;49.086;9.284;2022-08-23T15:49:36;2.03;;;0.97;;
4311;SDS011;2169;49.086;9.284;2022-08-23T15:52:03;4.87;;;1.00;;